createdAt,value
2018-04-21T00:00:57.125Z,99.90
2018-04-21T00:03:25.358Z,99.90
2018-04-21T00:05:54.662Z,99.90
2018-04-21T00:08:22.965Z,99.90
2018-04-21T00:10:51.250Z,99.90
2018-04-21T00:13:19.538Z,99.90
2018-04-21T00:15:47.856Z,99.90
2018-04-21T00:18:16.163Z,99.90
2018-04-21T00:20:44.710Z,99.90
2018-04-21T00:23:12.944Z,99.90
2018-04-21T00:25:41.648Z,99.90
2018-04-21T00:46:14.237Z,99.90
2018-04-21T00:48:42.599Z,99.90
2018-04-21T00:51:10.894Z,99.90
2018-04-21T00:53:51.789Z,99.90
2018-04-21T00:56:20.078Z,99.90
2018-04-21T00:58:48.362Z,99.90
2018-04-21T01:01:16.759Z,99.90
2018-04-21T01:03:45.029Z,99.90
2018-04-21T01:06:13.272Z,99.90
2018-04-21T01:26:44.862Z,99.90
2018-04-21T01:29:13.094Z,99.90
2018-04-21T01:31:41.378Z,99.90
2018-04-21T01:34:09.664Z,99.90
2018-04-21T01:36:37.968Z,99.90
2018-04-21T01:39:06.961Z,99.90
2018-04-21T01:41:35.435Z,99.90
2018-04-21T01:44:03.694Z,99.90
2018-04-21T01:46:31.931Z,99.90
2018-04-21T01:49:00.309Z,99.90
2018-04-21T02:09:32.534Z,99.90
2018-04-21T02:12:01.021Z,99.90
2018-04-21T02:14:29.299Z,99.90
2018-04-21T02:16:57.559Z,99.90
2018-04-21T02:19:26.162Z,99.90
2018-04-21T02:21:54.603Z,99.90
2018-04-21T02:24:22.907Z,99.90
2018-04-21T02:26:51.554Z,99.90
2018-04-21T02:29:19.821Z,99.90
2018-04-21T02:31:48.090Z,99.90
2018-04-21T02:52:17.061Z,99.90
2018-04-21T02:54:45.342Z,99.90
2018-04-21T02:57:13.582Z,99.90
2018-04-21T02:59:42.046Z,99.90
2018-04-21T03:02:10.306Z,99.90
2018-04-21T03:04:38.600Z,99.90
2018-04-21T03:07:07.095Z,99.90
2018-04-21T03:09:35.375Z,99.90
2018-04-21T03:12:03.671Z,99.90
2018-04-21T03:14:32.742Z,99.90
2018-04-21T03:17:00.965Z,99.90
2018-04-21T03:19:30.043Z,99.90
2018-04-21T03:21:58.476Z,99.90
2018-04-21T03:24:26.784Z,99.90
2018-04-21T03:26:55.078Z,99.90
2018-04-21T03:29:23.359Z,99.90
2018-04-21T03:31:51.583Z,99.90
2018-04-21T03:34:19.863Z,99.90
2018-04-21T03:36:48.917Z,99.90
2018-04-21T03:39:17.227Z,99.90
2018-04-21T03:41:46.217Z,99.90
2018-04-21T03:44:15.392Z,99.90
2018-04-21T03:46:43.691Z,99.90
2018-04-21T03:49:11.956Z,99.90
2018-04-21T03:51:40.370Z,99.90
2018-04-21T03:54:08.657Z,99.90
2018-04-21T03:56:36.901Z,99.90
2018-04-21T03:59:05.252Z,99.90
2018-04-21T04:01:33.551Z,99.90
2018-04-21T04:04:01.863Z,99.90
2018-04-21T04:06:30.354Z,99.90
2018-04-21T04:08:58.669Z,99.90
2018-04-21T04:11:26.982Z,99.90
2018-04-21T04:14:07.555Z,99.90
2018-04-21T04:16:47.814Z,99.90
2018-04-21T04:19:16.448Z,99.90
2018-04-21T04:39:45.283Z,99.90
2018-04-21T04:42:13.534Z,99.90
2018-04-21T04:44:41.780Z,99.90
2018-04-21T04:47:10.864Z,99.90
2018-04-21T04:49:39.186Z,99.90
2018-04-21T04:52:08.221Z,99.90
2018-04-21T05:12:40.522Z,99.90
2018-04-21T05:33:11.442Z,99.90
2018-04-21T05:35:40.705Z,99.90
2018-04-21T05:38:08.986Z,99.90
2018-04-21T05:40:37.274Z,99.90
2018-04-21T05:43:05.553Z,99.90
2018-04-21T05:45:33.804Z,99.90
2018-04-21T05:48:02.087Z,99.90
2018-04-21T05:50:30.378Z,99.90
2018-04-21T05:52:58.689Z,99.90
2018-04-21T05:55:27.050Z,99.90
2018-04-21T05:57:55.562Z,99.90
2018-04-21T06:00:23.794Z,99.90
2018-04-21T06:02:52.082Z,99.90
2018-04-21T06:05:20.382Z,99.90
2018-04-21T06:07:48.621Z,99.90
2018-04-21T06:10:16.902Z,99.90
2018-04-21T06:12:45.327Z,99.90
2018-04-21T06:15:13.623Z,99.90
2018-04-21T06:35:43.472Z,99.90
2018-04-21T06:38:12.481Z,99.90
2018-04-21T06:40:40.758Z,99.90
2018-04-21T06:43:10.024Z,99.90
2018-04-21T06:45:38.427Z,99.90
2018-04-21T06:48:06.731Z,99.90
2018-04-21T06:50:35.982Z,99.90
2018-04-21T06:53:04.393Z,99.90
2018-04-21T06:55:33.093Z,99.90
2018-04-21T06:58:01.361Z,99.90
2018-04-21T07:00:30.439Z,99.90
2018-04-21T07:02:58.697Z,99.90
2018-04-21T07:05:26.994Z,99.90
2018-04-21T07:07:55.290Z,99.90
2018-04-21T07:10:23.551Z,99.90
2018-04-21T07:12:52.041Z,99.90
2018-04-21T07:15:20.266Z,99.90
2018-04-21T07:17:48.566Z,99.90
2018-04-21T07:20:17.143Z,99.90
2018-04-21T07:22:45.406Z,99.90
2018-04-21T07:43:18.294Z,99.90
2018-04-21T07:45:47.347Z,99.90
2018-04-21T07:48:15.682Z,99.90
2018-04-21T07:50:44.349Z,99.90
2018-04-21T07:53:12.650Z,99.90
2018-04-21T07:55:40.964Z,99.90
2018-04-21T07:58:09.462Z,99.90
2018-04-21T08:00:37.749Z,99.90
2018-04-21T08:03:06.041Z,99.90
2018-04-21T08:05:34.442Z,99.90
2018-04-21T08:08:02.844Z,99.90
2018-04-21T08:28:35.494Z,99.90
2018-04-21T08:31:03.778Z,99.90
2018-04-21T08:33:32.038Z,99.90
2018-04-21T08:36:00.670Z,99.90
2018-04-21T08:56:34.192Z,99.90
2018-04-21T08:59:02.680Z,99.90
2018-04-21T09:01:30.972Z,99.90
2018-04-21T09:03:59.260Z,99.90
2018-04-21T09:06:27.686Z,99.90
2018-04-21T09:08:55.956Z,99.90
2018-04-21T09:11:24.287Z,99.90
2018-04-21T09:13:53.278Z,99.90
2018-04-21T09:16:21.556Z,99.90
2018-04-21T09:18:49.849Z,99.90
2018-04-21T09:21:18.164Z,99.90
2018-04-21T09:23:47.296Z,99.90
2018-04-21T09:26:15.960Z,99.90
2018-04-21T09:28:44.267Z,99.90
2018-04-21T09:31:12.804Z,99.90
2018-04-21T09:33:41.903Z,99.90
2018-04-21T09:36:10.279Z,99.90
2018-04-21T09:38:39.568Z,99.90
2018-04-21T09:41:07.875Z,99.90
2018-04-21T09:43:36.949Z,99.90
2018-04-21T09:46:05.174Z,99.90
2018-04-21T09:48:33.485Z,99.90
2018-04-21T09:51:01.773Z,99.90
2018-04-21T09:53:30.050Z,99.90
2018-04-21T09:55:58.287Z,99.90
2018-04-21T09:58:26.631Z,99.90
2018-04-21T10:00:54.923Z,99.90
2018-04-21T10:03:23.317Z,99.90
2018-04-21T10:05:52.696Z,98.40
2018-04-21T10:26:22.962Z,95.70
2018-04-21T10:46:53.842Z,94.10
2018-04-21T10:49:22.841Z,87.50
2018-04-21T10:51:51.116Z,87.50
2018-04-21T10:54:20.154Z,84.90
2018-04-21T11:14:51.784Z,90.40
2018-04-21T11:17:20.066Z,78.20
2018-04-21T11:19:49.064Z,70.80
2018-04-21T11:22:18.106Z,72.10
2018-04-21T11:24:46.477Z,72.00
2018-04-21T11:27:14.885Z,68.10
2018-04-21T11:29:43.171Z,70.10
2018-04-21T11:32:11.687Z,70.90
2018-04-21T11:52:44.022Z,67.30
2018-04-21T11:55:12.517Z,67.30
2018-04-21T11:57:40.787Z,63.90
2018-04-21T12:00:09.056Z,69.20
2018-04-21T12:02:37.446Z,64.80
2018-04-21T12:05:05.717Z,59.10
2018-04-21T12:07:33.977Z,57.80
2018-04-21T12:10:03.074Z,54.60
2018-04-21T12:12:31.338Z,54.50
2018-04-21T12:14:59.614Z,53.00
2018-04-21T12:17:27.870Z,54.00
2018-04-21T12:38:02.408Z,46.00
2018-04-21T12:40:30.673Z,45.90
2018-04-21T12:42:58.946Z,44.50
2018-04-21T12:45:27.305Z,45.20
2018-04-21T12:47:55.861Z,44.60
2018-04-21T12:50:24.893Z,43.30
2018-04-21T12:52:53.898Z,44.70
2018-04-21T13:13:26.523Z,44.50
2018-04-21T13:15:54.784Z,43.40
2018-04-21T13:18:23.807Z,45.50
2018-04-21T13:20:52.087Z,45.50
2018-04-21T13:41:24.300Z,33.50
2018-04-21T14:01:56.357Z,30.00
2018-04-21T14:04:24.638Z,31.20
2018-04-21T14:06:52.927Z,28.00
2018-04-21T14:09:21.212Z,28.80
2018-04-21T14:11:49.466Z,26.80
2018-04-21T14:14:17.737Z,27.90
2018-04-21T14:34:50.580Z,25.90
2018-04-21T14:37:18.847Z,26.00
2018-04-21T14:39:47.106Z,25.80
2018-04-21T14:42:16.258Z,26.00
2018-04-21T14:44:44.542Z,26.00
2018-04-21T14:47:12.801Z,26.00
2018-04-21T14:49:41.103Z,26.50
2018-04-21T14:52:09.374Z,25.80
2018-04-21T15:12:40.918Z,25.00
2018-04-21T15:15:09.178Z,25.10
2018-04-21T15:17:38.213Z,24.90
2018-04-21T15:20:06.611Z,24.90
2018-04-21T15:40:38.766Z,24.00
2018-04-21T15:43:07.066Z,24.70
2018-04-21T15:45:35.343Z,25.50
2018-04-21T16:06:06.846Z,24.10
2018-04-21T16:26:40.084Z,27.60
2018-04-21T16:29:08.412Z,26.70
2018-04-21T16:49:42.304Z,31.10
2018-04-21T16:52:11.403Z,30.20
2018-04-21T16:54:39.740Z,30.20
2018-04-21T16:57:07.965Z,31.80
2018-04-21T16:59:37.076Z,31.60
2018-04-21T17:20:08.042Z,34.40
2018-04-21T17:22:36.371Z,34.40
2018-04-21T17:25:04.634Z,35.20
2018-04-21T17:27:32.929Z,35.40
2018-04-21T17:30:01.164Z,35.00
2018-04-21T17:32:29.506Z,38.40
2018-04-21T17:34:57.761Z,41.50
2018-04-21T17:37:26.368Z,44.30
2018-04-21T17:39:55.656Z,46.40
2018-04-21T17:42:23.911Z,46.40
2018-04-21T17:44:52.363Z,47.80
2018-04-21T18:05:24.009Z,56.10
2018-04-21T18:07:52.540Z,56.30
2018-04-21T18:10:21.530Z,58.10
2018-04-21T18:12:50.603Z,59.60
2018-04-21T18:33:21.791Z,73.00
2018-04-21T18:53:52.823Z,84.90
2018-04-21T19:14:22.506Z,93.40
2018-04-21T19:16:50.775Z,95.70
2018-04-21T19:19:19.773Z,96.90
2018-04-21T19:39:52.767Z,98.40
2018-04-21T20:00:25.724Z,99.90
2018-04-21T20:02:54.191Z,99.90
2018-04-21T20:05:22.799Z,99.90
2018-04-21T20:07:51.076Z,99.90
2018-04-21T20:10:19.720Z,99.90
2018-04-21T20:12:48.829Z,99.90
2018-04-21T20:15:17.095Z,99.90
2018-04-21T20:17:45.380Z,99.90
2018-04-21T20:20:14.374Z,99.90
2018-04-21T20:22:43.422Z,99.90
2018-04-21T20:25:11.717Z,99.90
2018-04-21T20:45:45.143Z,99.90
2018-04-21T20:48:13.728Z,99.90
2018-04-21T20:50:42.035Z,99.90
2018-04-21T20:53:10.344Z,99.90
2018-04-21T21:13:43.356Z,99.90
2018-04-21T21:16:11.646Z,99.90
2018-04-21T21:18:39.921Z,99.90
2018-04-21T21:21:08.242Z,99.90
2018-04-21T21:23:36.493Z,99.90
2018-04-21T21:26:04.745Z,99.90
2018-04-21T21:28:33.977Z,99.90
2018-04-21T21:31:02.294Z,99.90
2018-04-21T21:33:30.574Z,99.90
2018-04-21T21:35:58.870Z,99.90
2018-04-21T21:38:28.647Z,99.90
2018-04-21T21:40:56.929Z,99.90
2018-04-21T21:43:25.207Z,99.90
2018-04-21T21:45:53.484Z,99.90
2018-04-21T21:48:21.787Z,99.90
2018-04-21T21:50:50.306Z,99.90
2018-04-21T21:53:19.367Z,99.90
2018-04-21T21:55:47.675Z,99.90
2018-04-21T21:58:16.137Z,99.90
2018-04-21T22:18:46.794Z,99.90
2018-04-21T22:21:15.282Z,99.90
2018-04-21T22:23:43.533Z,99.90
2018-04-21T22:26:11.806Z,99.90
2018-04-21T22:28:40.150Z,99.90
2018-04-21T22:49:11.420Z,99.90
2018-04-21T22:51:39.845Z,99.90
2018-04-21T22:54:08.090Z,99.90
2018-04-21T22:56:36.382Z,99.90
2018-04-21T22:59:05.051Z,99.90
2018-04-21T23:01:33.314Z,99.90
2018-04-21T23:04:01.613Z,99.90
2018-04-21T23:06:30.638Z,99.90
2018-04-21T23:08:58.931Z,99.90
2018-04-21T23:11:27.212Z,99.90
2018-04-21T23:13:55.514Z,99.90
2018-04-21T23:34:25.336Z,99.90
2018-04-21T23:36:53.809Z,99.90
2018-04-21T23:39:22.053Z,99.90
2018-04-21T23:41:51.077Z,99.90
2018-04-21T23:44:19.399Z,99.90
2018-04-21T23:46:47.663Z,99.90
2018-04-21T23:49:15.934Z,99.90
2018-04-21T23:51:44.480Z,99.90
2018-04-21T23:54:12.730Z,99.90
2018-04-21T23:56:40.998Z,99.90
2018-04-21T23:59:09.270Z,99.90
